Time;durP1;ratioP1;P1;durP2;ratioP2;P2;SDS_P1;SDS_P2;PMS_P1;PMS_P2;Temp;Humidity;BMP_temperature;BMP_pressure;BME280_temperature;BME280_humidity;BME280_pressure;Samples;Min_cycle;Max_cycle;Signal;HPM_P1;HPM_P2
2022/06/17 00:00:57;;;;;;;1.85;1.25;;;17.00;78.20;;;16.80;55.38;97860.81;5019716;28;20548;-42
2022/06/17 00:03:25;;;;;;;1.73;1.10;;;16.90;78.20;;;16.78;55.04;97868.03;5012670;28;20097;-42
2022/06/17 00:05:53;;;;;;;3.83;1.70;;;16.90;77.90;;;16.77;54.63;97875.13;5015207;28;20037;-43
2022/06/17 00:08:26;;;;;;;2.47;1.50;;;16.90;77.90;;;16.76;55.70;97880.53;5013409;28;20037;-41
2022/06/17 00:10:52;;;;;;;2.05;1.40;;;16.90;78.20;;;16.72;56.43;97879.84;5035773;28;20070;-43
2022/06/17 00:13:20;;;;;;;4.00;1.27;;;16.90;78.70;;;16.69;56.21;97877.38;5015737;28;20065;-42
2022/06/17 00:15:47;;;;;;;2.78;1.50;;;16.90;78.60;;;16.65;56.88;97877.59;5015344;28;20053;-42
2022/06/17 00:18:14;;;;;;;1.25;1.15;;;16.80;79.20;;;16.58;57.16;97871.75;5028612;28;20031;-42
2022/06/17 00:20:40;;;;;;;1.85;1.33;;;16.70;79.40;;;16.52;57.28;97870.28;5019183;28;20033;-42
2022/06/17 00:23:15;;;;;;;1.50;1.20;;;16.70;79.70;;;16.45;57.43;97876.88;5023117;28;20034;-42
2022/06/17 00:25:42;;;;;;;1.38;1.27;;;16.60;79.70;;;16.37;57.98;97877.28;5022244;28;20033;-42
2022/06/17 00:28:21;;;;;;;3.75;1.52;;;16.50;80.20;;;16.33;57.71;97874.84;5027251;28;20086;-43
2022/06/17 00:30:48;;;;;;;1.60;1.10;;;16.50;80.10;;;16.25;58.75;97880.59;5021995;28;20040;-43
2022/06/17 00:33:16;;;;;;;1.35;1.13;;;16.40;80.70;;;16.14;59.37;97869.66;5016346;28;20032;-42
2022/06/17 00:35:55;;;;;;;4.45;1.17;;;16.30;81.30;;;16.09;59.78;97875.19;5019763;28;20156;-42
2022/06/17 00:38:29;;;;;;;1.75;1.42;;;16.20;81.80;;;16.05;60.34;97870.97;5037974;28;20029;-42
2022/06/17 00:40:58;;;;;;;1.85;1.30;;;16.10;82.20;;;15.97;61.18;97882.03;5020272;28;20041;-42
2022/06/17 00:43:24;;;;;;;2.78;1.45;;;16.10;82.90;;;15.91;61.10;97884.97;5019575;28;20084;-42
2022/06/17 00:46:10;;;;;;;2.75;1.50;;;16.00;82.90;;;15.87;61.74;97886.09;5019856;28;20025;-42
2022/06/17 00:48:47;;;;;;;4.03;1.10;;;16.00;83.30;;;15.83;61.74;97890.69;5012557;28;20037;-42
2022/06/17 00:51:20;;;;;;;1.75;1.10;;;15.90;83.50;;;15.78;62.26;97887.41;5019611;28;20404;-42
2022/06/17 00:53:58;;;;;;;1.15;1.00;;;15.90;83.80;;;15.73;62.81;97883.22;5023498;28;20519;-42
2022/06/17 00:56:32;;;;;;;1.80;1.27;;;15.80;84.10;;;15.64;62.86;97872.09;5033341;28;20029;-43
2022/06/17 00:59:07;;;;;;;1.50;1.27;;;15.80;84.40;;;15.64;63.92;97888.03;5023801;28;20041;-42
2022/06/17 01:01:51;;;;;;;2.33;1.20;;;15.70;84.90;;;15.59;64.48;97887.41;5010479;28;20559;-43
2022/06/17 01:04:31;;;;;;;2.25;1.42;;;15.70;85.40;;;15.54;65.37;97886.81;5013746;28;20132;-42
2022/06/17 01:07:21;;;;;;;1.52;1.08;;;15.70;86.00;;;15.46;65.19;97881.84;5022174;28;20029;-42
2022/06/17 01:10:01;;;;;;;2.03;1.42;;;15.60;86.00;;;15.43;65.71;97887.34;5022130;28;20116;-42
2022/06/17 01:12:49;;;;;;;3.03;1.50;;;15.50;86.30;;;15.40;65.49;97889.28;5015659;28;20033;-43
2022/06/17 01:15:22;;;;;;;1.40;1.25;;;15.50;86.30;;;15.35;65.26;97885.97;5014716;28;20037;-43
2022/06/17 01:17:49;;;;;;;3.13;1.60;;;15.50;85.90;;;15.26;65.55;97879.31;5017230;28;20249;-43
2022/06/17 01:20:16;;;;;;;2.42;1.30;;;15.50;86.20;;;15.27;65.83;97887.22;5024983;28;20129;-43
2022/06/17 01:22:57;;;;;;;2.55;1.50;;;15.40;86.30;;;15.25;66.43;97874.91;5013134;28;20034;-43
2022/06/17 01:25:32;;;;;;;2.03;1.38;;;15.40;86.90;;;15.17;67.16;97861.16;5013643;28;20064;-42
2022/06/17 01:28:17;;;;;;;2.08;1.50;;;15.40;87.40;;;15.18;67.68;97868.19;5020097;28;20389;-42
2022/06/17 01:30:54;;;;;;;2.70;1.63;;;15.30;87.70;;;15.12;68.31;97858.72;5024137;28;20108;-43
2022/06/17 01:33:33;;;;;;;2.05;1.30;;;15.20;88.30;;;15.08;67.60;97860.66;5020418;28;20088;-42
2022/06/17 01:36:12;;;;;;;1.92;1.30;;;15.20;87.90;;;15.07;67.64;97868.69;5031323;28;20041;-41
2022/06/17 01:38:41;;;;;;;1.95;1.38;;;15.20;87.80;;;15.04;67.96;97869.72;5018462;28;20037;-42
2022/06/17 01:41:07;;;;;;;2.10;1.30;;;15.10;88.10;;;15.03;68.29;97861.81;5023235;28;20568;-42
2022/06/17 01:44:06;;;;;;;1.58;1.30;;;15.10;88.30;;;14.99;68.80;97863.75;5025016;28;20069;-42
2022/06/17 01:46:37;;;;;;;2.58;1.48;;;15.10;88.70;;;14.95;69.12;97870.16;5015518;28;20089;-42
2022/06/17 01:49:15;;;;;;;4.45;1.52;;;15.10;88.90;;;14.78;68.56;97838.22;5018636;28;20048;-42
2022/06/17 01:51:46;;;;;;;1.58;1.20;;;15.00;88.60;;;14.92;68.41;97864.13;5019288;28;20075;-42
2022/06/17 01:54:21;;;;;;;2.20;1.20;;;15.00;88.60;;;14.85;68.83;97863.53;5021626;28;20473;-42
2022/06/17 01:56:50;;;;;;;2.55;1.50;;;15.00;88.90;;;14.85;69.26;97869.69;5031702;28;20038;-43
2022/06/17 01:59:27;;;;;;;2.22;1.10;;;14.90;89.10;;;14.88;68.49;97871.38;5041998;28;20713;-43
2022/06/17 02:01:57;;;;;;;1.90;1.30;;;15.00;88.80;;;14.91;68.46;97873.00;5019114;28;20147;-43
2022/06/17 02:04:28;;;;;;;2.83;1.30;;;15.00;88.80;;;14.92;69.01;97880.06;5022740;28;20025;-42
2022/06/17 02:07:17;;;;;;;2.03;1.30;;;15.00;89.10;;;14.89;69.36;97883.69;5022319;28;20365;-41
2022/06/17 02:09:43;;;;;;;2.70;1.40;;;15.00;89.40;;;14.87;69.05;97869.63;5028252;28;20113;-42
2022/06/17 02:12:11;;;;;;;1.55;1.30;;;15.00;89.10;;;14.89;69.49;97873.06;5025018;28;20112;-43
2022/06/17 02:14:37;;;;;;;1.73;1.30;;;15.00;89.50;;;14.88;70.15;97879.34;5021679;28;20106;-42
2022/06/17 02:17:04;;;;;;;1.55;1.30;;;15.00;90.00;;;14.88;69.55;97861.59;5018549;28;20056;-43
2022/06/17 02:19:35;;;;;;;2.22;1.40;;;15.00;89.60;;;14.88;69.77;97863.41;5017407;28;20049;-42
2022/06/17 02:22:12;;;;;;;4.88;1.35;;;15.00;89.80;;;14.87;69.54;97859.00;5020810;28;20018;-43
2022/06/17 02:24:38;;;;;;;2.13;1.30;;;15.00;89.60;;;14.86;69.90;97857.31;5023018;28;20100;-44
2022/06/17 02:27:09;;;;;;;2.13;1.20;;;15.00;89.90;;;14.86;70.59;97852.00;5019153;28;20033;-42
2022/06/17 02:29:38;;;;;;;2.63;1.40;;;14.90;90.10;;;14.82;71.16;97845.97;5024061;28;20489;-42
2022/06/17 02:32:07;;;;;;;1.50;1.30;;;14.90;90.30;;;14.79;71.58;97839.94;5020944;28;20044;-42
2022/06/17 02:34:33;;;;;;;2.65;1.10;;;14.90;90.50;;;14.74;71.97;97852.56;5018466;28;20026;-41
2022/06/17 02:37:10;;;;;;;1.77;1.30;;;14.90;90.60;;;14.68;72.90;97848.41;5016991;28;20033;-42
2022/06/17 02:39:41;;;;;;;1.67;1.13;;;14.80;90.80;;;14.61;72.58;97855.78;5026731;28;20076;-42
2022/06/17 02:42:21;;;;;;;1.90;1.40;;;14.80;90.80;;;14.59;72.83;97859.44;5018272;28;20382;-42
2022/06/17 02:44:54;;;;;;;2.20;1.27;;;14.70;90.90;;;14.56;73.60;97860.41;5029344;23;20037;-39
2022/06/17 02:47:20;;;;;;;1.98;1.50;;;14.70;91.10;;;14.47;74.09;97866.13;5035039;28;20029;-39
2022/06/17 02:49:47;;;;;;;2.53;1.27;;;14.60;91.20;;;14.42;75.01;97853.06;5038093;28;20052;-39
2022/06/17 02:52:17;;;;;;;4.03;1.80;;;14.60;91.50;;;14.33;76.18;97838.41;5039997;28;20037;-39
2022/06/17 02:54:51;;;;;;;2.38;1.30;;;14.50;91.90;;;14.33;76.16;97838.41;5033114;28;20033;-39
2022/06/17 02:57:25;;;;;;;1.33;1.20;;;14.50;91.90;;;14.27;76.28;97833.41;5038305;28;20408;-39
2022/06/17 03:00:13;;;;;;;1.75;1.33;;;14.40;92.00;;;14.31;76.29;97845.59;5041793;28;20129;-40
2022/06/17 03:02:46;;;;;;;1.92;1.40;;;14.40;92.00;;;14.31;76.48;97847.38;5033407;28;20026;-39
2022/06/17 03:05:27;;;;;;;1.73;1.30;;;14.40;92.20;;;14.33;75.64;97851.69;5040677;28;20345;-39
2022/06/17 03:07:56;;;;;;;2.10;1.40;;;14.50;91.90;;;14.32;77.71;97849.97;5040706;28;20018;-39
2022/06/17 03:10:38;;;;;;;2.20;1.60;;;14.50;92.50;;;14.33;79.56;97854.34;5042433;28;20040;-39
2022/06/17 03:13:33;;;;;;;4.28;1.75;;;14.50;93.10;;;14.31;79.64;97855.34;5043861;28;20042;-39
2022/06/17 03:16:02;;;;;;;3.25;1.55;;;14.50;93.10;;;14.27;78.08;97862.59;5038271;28;20418;-39
2022/06/17 03:18:29;;;;;;;2.40;1.65;;;14.50;92.60;;;14.30;77.80;97869.53;5042916;28;20036;-39
2022/06/17 03:20:55;;;;;;;2.15;1.42;;;14.50;92.40;;;14.30;77.79;97865.09;5037944;28;20024;-40
2022/06/17 03:23:56;;;;;;;2.25;1.65;;;14.50;92.50;;;14.28;79.09;97872.28;5039014;28;20059;-39
2022/06/17 03:26:28;;;;;;;2.58;1.25;;;14.50;93.00;;;14.25;79.75;97875.06;5039611;28;20063;-39
2022/06/17 03:28:57;;;;;;;2.80;1.75;;;14.50;93.20;;;14.23;79.57;97871.63;5041042;28;20029;-39
2022/06/17 03:31:34;;;;;;;3.72;1.88;;;14.40;93.20;;;14.22;79.70;97877.84;5040661;28;20040;-39
2022/06/17 03:34:15;;;;;;;3.25;1.55;;;14.40;93.60;;;14.18;78.71;97884.22;5032507;28;20029;-39
2022/06/17 03:37:01;;;;;;;2.40;1.40;;;14.40;93.00;;;14.20;77.59;97884.16;5034077;28;20437;-39
2022/06/17 03:39:41;;;;;;;4.10;1.45;;;14.40;92.70;;;14.19;77.67;97890.38;5039167;28;20033;-39
2022/06/17 03:42:12;;;;;;;2.45;1.70;;;14.40;92.70;;;14.21;77.75;97891.16;5040199;28;20130;-39
2022/06/17 03:44:49;;;;;;;2.35;1.63;;;14.40;92.80;;;14.17;77.88;97890.44;5035338;28;20120;-38
2022/06/17 03:47:41;;;;;;;1.90;1.50;;;14.40;92.80;;;14.19;78.38;97890.38;5043660;28;20059;-39
2022/06/17 03:50:17;;;;;;;2.60;1.60;;;14.40;93.00;;;14.20;79.47;97895.63;5031697;28;20506;-39
2022/06/17 03:52:56;;;;;;;2.67;1.60;;;14.40;93.40;;;14.24;79.66;97896.34;5041969;28;20064;-39
2022/06/17 03:55:23;;;;;;;2.75;1.42;;;14.40;93.50;;;14.26;79.82;97899.78;5041857;28;20489;-40
2022/06/17 03:57:57;;;;;;;2.85;1.30;;;14.40;93.60;;;14.29;79.55;97900.50;5033624;28;20110;-39
2022/06/17 04:00:31;;;;;;;2.70;1.73;;;14.50;93.60;;;14.33;79.62;97901.25;5044578;28;20056;-39
2022/06/17 04:03:00;;;;;;;1.77;1.40;;;14.50;93.70;;;14.38;79.24;97906.34;5037766;28;20076;-39
2022/06/17 04:05:26;;;;;;;2.20;1.42;;;14.50;93.60;;;14.43;78.43;97909.66;5041002;28;20378;-39
2022/06/17 04:07:52;;;;;;;4.10;1.42;;;14.60;93.40;;;14.48;77.27;97911.19;5036536;28;20552;-39
2022/06/17 04:10:31;;;;;;;7.07;2.03;;;14.70;93.00;;;14.47;76.38;97903.28;5035187;28;20041;-39
2022/06/17 04:12:57;;;;;;;2.00;1.33;;;14.70;92.80;;;14.56;76.24;97913.50;5043003;28;20036;-39
2022/06/17 04:15:50;;;;;;;2.20;1.10;;;14.80;92.70;;;14.65;76.44;97913.09;5038652;28;20497;-39
2022/06/17 04:18:16;;;;;;;1.88;1.45;;;14.80;92.70;;;14.71;76.95;97919.91;5035955;28;20507;-39
2022/06/17 04:20:47;;;;;;;1.50;1.35;;;14.90;93.00;;;14.76;76.59;97925.88;5043051;28;20037;-39
2022/06/17 04:23:27;;;;;;;2.35;1.30;;;14.90;92.90;;;14.82;77.10;97928.28;5036844;28;20088;-39
2022/06/17 04:26:25;;;;;;;4.22;1.40;;;15.00;93.00;;;14.87;76.94;97936.88;5034870;28;20215;-39
2022/06/17 04:28:59;;;;;;;3.20;1.52;;;15.10;93.10;;;14.93;75.99;97937.53;5046747;28;20296;-39
2022/06/17 04:31:28;;;;;;;3.10;1.65;;;15.10;92.80;;;14.94;75.46;97939.28;5040133;28;20029;-40
2022/06/17 04:33:58;;;;;;;3.80;1.50;;;15.10;92.60;;;14.97;75.54;97936.47;5037052;28;20034;-39
2022/06/17 04:36:42;;;;;;;2.85;1.70;;;15.10;92.60;;;15.02;75.08;97953.91;5034021;28;20497;-39
2022/06/17 04:39:24;;;;;;;5.65;1.50;;;15.20;92.60;;;15.06;74.90;97947.53;5037944;28;20036;-39
2022/06/17 04:41:53;;;;;;;1.40;1.30;;;15.30;92.40;;;15.11;74.81;97949.97;5044613;28;20021;-39
2022/06/17 04:44:18;;;;;;;3.17;1.50;;;15.30;92.40;;;15.14;75.32;97951.63;5057992;28;20163;-39
2022/06/17 04:46:48;;;;;;;2.80;1.75;;;15.30;92.70;;;15.21;75.28;97959.22;5042430;28;20025;-39
2022/06/17 04:49:19;;;;;;;2.15;1.38;;;15.30;92.70;;;15.28;74.20;97946.53;5041263;28;20026;-39
2022/06/17 04:51:46;;;;;;;3.90;1.70;;;15.40;92.40;;;15.39;72.91;97954.84;5053071;28;20090;-39
2022/06/17 04:54:12;;;;;;;2.03;1.52;;;15.50;92.20;;;15.51;71.65;97955.22;5041098;28;20389;-39
2022/06/17 04:56:45;;;;;;;3.17;1.50;;;15.60;91.80;;;15.64;71.32;97956.31;5055297;28;20041;-39
2022/06/17 04:59:37;;;;;;;2.33;1.35;;;15.70;91.60;;;16.02;70.85;97965.13;5034870;28;20057;-39
2022/06/17 05:02:13;;;;;;;2.22;1.70;;;15.90;91.70;;;16.57;67.45;97961.41;5035179;28;20037;-39
2022/06/17 05:04:39;;;;;;;4.03;1.42;;;16.20;91.10;;;17.32;64.19;97964.56;5039310;28;20033;-40
2022/06/17 05:07:05;;;;;;;3.63;1.77;;;16.60;90.50;;;17.96;60.93;97953.00;5039917;28;20472;-39
2022/06/17 05:09:42;;;;;;;1.85;1.20;;;17.10;89.40;;;19.12;57.04;97963.84;5036080;28;20128;-40
2022/06/17 05:12:23;;;;;;;1.05;0.80;;;17.80;88.10;;;20.13;53.16;97966.28;5037491;28;20510;-40
2022/06/17 05:14:57;;;;;;;2.35;1.52;;;18.60;85.20;;;21.27;49.40;97955.81;5035272;28;20320;-40
2022/06/17 05:17:23;;;;;;;1.90;1.30;;;19.40;82.10;;;22.47;46.00;97960.41;5039497;28;20028;-40
2022/06/17 05:19:49;;;;;;;2.67;1.52;;;20.30;78.70;;;23.19;43.71;97964.72;5043504;28;20029;-40
2022/06/17 05:22:33;;;;;;;1.95;1.50;;;21.00;75.80;;;23.67;41.46;97972.50;5036840;28;20036;-40
2022/06/17 05:25:03;;;;;;;1.83;1.20;;;21.40;72.20;;;24.31;40.37;97981.66;5034411;28;20049;-40
2022/06/17 05:27:29;;;;;;;1.77;1.23;;;22.00;70.90;;;24.85;39.16;97969.00;5037041;28;20377;-39
2022/06/17 05:29:55;;;;;;;1.70;1.30;;;22.50;69.20;;;25.08;37.25;97975.97;5033364;28;20041;-40
2022/06/17 05:32:21;;;;;;;2.88;1.35;;;22.80;65.50;;;25.09;37.76;97980.38;5031926;28;20025;-40
2022/06/17 05:34:49;;;;;;;2.70;1.20;;;23.00;65.70;;;24.67;38.35;97987.63;5038272;28;20075;-40
2022/06/17 05:37:15;;;;;;;3.30;1.33;;;22.90;65.80;;;23.98;39.86;97991.56;5041348;28;20241;-39
2022/06/17 05:39:41;;;;;;;1.88;1.40;;;22.60;66.90;;;23.23;41.16;97982.31;5040501;28;20035;-40
2022/06/17 05:42:08;;;;;;;3.25;1.50;;;22.20;67.80;;;22.48;42.75;97986.28;5042326;28;20409;-40
2022/06/17 05:44:34;;;;;;;2.83;1.20;;;21.80;69.00;;;21.91;44.46;97985.16;5051584;28;20028;-42
2022/06/17 05:47:00;;;;;;;2.95;1.40;;;21.40;70.70;;;21.36;44.64;97985.50;5043299;28;20025;-40
2022/06/17 05:49:25;;;;;;;4.43;1.60;;;21.00;70.70;;;21.05;45.62;97994.00;5041923;28;20051;-39
2022/06/17 05:51:51;;;;;;;1.65;1.20;;;20.70;71.70;;;20.81;46.93;98008.16;5038064;28;20540;-40
2022/06/17 05:54:17;;;;;;;1.38;1.20;;;20.50;73.20;;;20.59;48.38;98004.22;5037806;28;20500;-39
2022/06/17 05:56:44;;;;;;;2.58;1.30;;;20.40;74.60;;;20.52;49.17;98010.97;5034727;28;20056;-40
2022/06/17 05:59:10;;;;;;;1.80;1.42;;;20.20;75.70;;;20.29;50.06;98006.31;5039292;28;20100;-40
2022/06/17 06:01:36;;;;;;;1.95;1.33;;;20.10;76.50;;;20.18;50.36;98015.06;5040947;28;20033;-39
2022/06/17 06:04:02;;;;;;;1.20;1.10;;;20.00;76.90;;;20.13;50.88;98007.31;5038618;28;20044;-40
2022/06/17 06:06:28;;;;;;;2.40;1.58;;;20.00;77.30;;;20.10;50.55;98010.22;5038382;28;20029;-40
2022/06/17 06:08:54;;;;;;;3.67;1.52;;;20.00;76.90;;;20.06;51.19;98014.03;5040868;28;20395;-40
2022/06/17 06:11:19;;;;;;;4.57;1.67;;;20.00;77.30;;;20.02;50.55;98009.84;5059075;28;20110;-40
2022/06/17 06:13:45;;;;;;;1.73;1.13;;;20.00;76.70;;;20.14;51.07;98021.59;5043335;28;20041;-40
2022/06/17 06:16:11;;;;;;;2.45;1.42;;;20.00;77.50;;;20.23;51.04;98014.75;5042035;28;20068;-40
2022/06/17 06:18:41;;;;;;;2.78;1.10;;;20.10;77.30;;;20.32;51.10;98014.13;5036024;28;20060;-40
2022/06/17 06:21:07;;;;;;;1.58;1.40;;;20.20;77.20;;;20.45;50.31;98003.47;5036711;28;20029;-40
2022/06/17 06:23:36;;;;;;;2.83;1.52;;;20.30;76.80;;;20.52;49.53;98005.59;5037253;28;20032;-40
2022/06/17 06:26:03;;;;;;;1.40;1.25;;;20.40;75.40;;;20.66;48.69;98002.03;5042812;28;20489;-40
2022/06/17 06:28:29;;;;;;;3.30;1.60;;;20.50;74.90;;;20.75;49.16;97996.03;5041165;28;20127;-40
2022/06/17 06:31:02;;;;;;;4.00;1.60;;;20.60;75.20;;;20.83;48.43;97986.59;5037580;28;20023;-40
2022/06/17 06:33:28;;;;;;;3.53;1.45;;;20.70;74.70;;;20.70;48.46;97992.81;5048082;28;20036;-40
2022/06/17 06:35:54;;;;;;;4.75;1.50;;;20.70;74.70;;;20.61;48.81;98004.16;5044284;28;20025;-40
2022/06/17 06:38:20;;;;;;;3.45;1.38;;;20.50;74.60;;;20.37;50.22;97996.78;5045671;28;20048;-40
2022/06/17 06:40:47;;;;;;;4.72;1.70;;;20.40;75.70;;;20.25;51.96;98004.81;5033690;28;20049;-40
2022/06/17 06:43:18;;;;;;;4.38;1.58;;;20.30;77.70;;;20.19;52.57;97988.19;5041901;28;20047;-40
2022/06/17 06:45:47;;;;;;;2.27;1.50;;;20.20;78.30;;;20.31;52.45;97999.88;5036768;28;20025;-40
2022/06/17 06:48:15;;;;;;;1.85;1.50;;;20.30;78.20;;;20.48;51.62;97998.75;5029853;28;20033;-40
2022/06/17 06:50:42;;;;;;;4.32;1.80;;;20.50;77.90;;;20.67;51.09;97997.50;5032421;28;20033;-40
2022/06/17 06:53:08;;;;;;;2.53;1.50;;;20.60;77.20;;;20.83;50.26;98000.84;5042785;28;20086;-40
2022/06/17 06:55:35;;;;;;;1.75;1.23;;;20.80;76.60;;;20.97;49.96;98000.75;5037627;28;20123;-40
2022/06/17 06:58:13;;;;;;;2.33;1.40;;;20.90;76.20;;;21.11;49.89;97999.78;5039191;28;20033;-40
2022/06/17 07:00:46;;;;;;;5.18;1.77;;;21.10;76.00;;;21.23;49.14;98006.13;5036316;28;20749;-40
2022/06/17 07:03:13;;;;;;;2.00;1.58;;;21.20;74.90;;;21.29;48.38;98011.03;5041094;28;20034;-40
2022/06/17 07:05:43;;;;;;;2.05;1.40;;;21.20;74.50;;;21.35;48.14;98012.44;5039660;28;20024;-40
2022/06/17 07:08:13;;;;;;;2.38;1.52;;;21.30;73.80;;;21.45;47.78;98021.56;5052436;28;20037;-40
2022/06/17 07:10:41;;;;;;;2.08;1.52;;;21.40;73.90;;;21.58;47.52;98028.75;5043553;28;20021;-41
2022/06/17 07:13:08;;;;;;;2.40;1.60;;;21.50;73.60;;;21.63;47.88;98023.91;5042318;28;20079;-40
2022/06/17 07:15:36;;;;;;;3.55;1.77;;;21.60;73.30;;;21.66;47.06;98024.56;5041803;28;20100;-40
2022/06/17 07:18:11;;;;;;;2.45;1.70;;;21.60;73.20;;;21.67;46.83;98023.56;5037463;28;20037;-40
2022/06/17 07:20:42;;;;;;;3.65;2.00;;;21.60;72.80;;;21.71;46.13;98032.25;5035815;28;20037;-40
2022/06/17 07:23:12;;;;;;;1.60;1.50;;;21.70;71.60;;;21.79;45.94;98029.88;5045263;28;20067;-40
2022/06/17 07:25:38;;;;;;;2.78;1.90;;;21.70;71.00;;;21.80;44.84;98026.22;5037411;28;20025;-40
2022/06/17 07:28:04;;;;;;;2.33;1.50;;;21.80;70.30;;;21.92;44.57;98029.84;5041532;28;20033;-41
2022/06/17 07:30:33;;;;;;;4.95;1.98;;;21.90;69.60;;;21.92;45.16;98030.69;5042344;28;20025;-40
2022/06/17 07:32:59;;;;;;;4.20;1.67;;;22.00;69.60;;;22.07;45.09;98022.47;5037246;28;20025;-40
2022/06/17 07:35:25;;;;;;;4.07;1.90;;;22.10;70.00;;;22.06;44.79;98020.78;5041114;28;20029;-40
2022/06/17 07:40:35;;;;;;;3.10;1.50;;;22.20;68.80;;;22.15;44.09;97993.22;5045537;28;20027;-41
2022/06/17 07:43:02;;;;;;;2.60;1.83;;;22.30;69.00;;;22.48;44.38;98015.84;5039192;28;20029;-40
2022/06/17 07:45:30;;;;;;;4.20;2.22;;;22.50;69.20;;;22.58;43.27;98016.88;5040226;28;20087;-40
2022/06/17 07:47:57;;;;;;;3.88;2.13;;;22.60;68.20;;;22.74;42.13;98026.44;5044207;28;20017;-40
2022/06/17 07:50:28;;;;;;;4.88;2.03;;;22.80;66.70;;;22.74;42.14;98021.06;5039905;28;20041;-40
2022/06/17 07:52:54;;;;;;;3.78;1.77;;;22.80;66.20;;;22.81;42.22;98023.19;5040309;28;20028;-40
2022/06/17 07:55:20;;;;;;;4.78;2.42;;;22.90;66.30;;;22.92;42.10;98027.75;5039369;28;20025;-41
2022/06/17 07:57:46;;;;;;;6.63;2.20;;;23.00;66.20;;;23.07;41.95;98025.72;5039479;28;20390;-40
2022/06/17 08:00:37;;;;;;;3.50;1.88;;;23.10;66.60;;;23.19;42.29;98027.44;5037049;28;20040;-40
2022/06/17 08:03:04;;;;;;;4.85;2.55;;;23.10;66.00;;;23.06;41.43;98029.41;5044228;28;20500;-40
2022/06/17 08:05:31;;;;;;;2.88;2.05;;;23.10;64.60;;;22.98;41.62;98026.41;5035778;28;20049;-40
2022/06/17 08:07:57;;;;;;;3.78;1.90;;;23.00;65.10;;;23.04;42.85;98028.59;5042099;28;20053;-40
2022/06/17 08:10:27;;;;;;;6.38;2.20;;;23.00;66.60;;;23.12;41.80;98031.59;5044470;28;20487;-40
2022/06/17 08:12:53;;;;;;;3.70;2.00;;;23.10;66.20;;;23.18;42.69;98025.72;5043848;28;20637;-40
2022/06/17 08:15:20;;;;;;;4.35;2.38;;;23.10;66.00;;;23.22;42.42;98021.84;5040037;28;20025;-40
2022/06/17 08:17:48;;;;;;;3.63;2.08;;;23.20;66.50;;;23.26;41.92;98022.44;5033774;28;20021;-40
2022/06/17 08:20:19;;;;;;;4.65;2.00;;;23.20;66.00;;;23.19;40.11;98027.44;5039870;28;21255;-40
2022/06/17 08:22:44;;;;;;;3.72;2.08;;;23.10;63.90;;;23.19;41.03;98027.44;5043758;28;20083;-40
2022/06/17 08:25:11;;;;;;;6.72;2.17;;;23.10;64.20;;;23.21;41.84;98035.41;5040600;28;20033;-41
2022/06/17 08:27:44;;;;;;;3.40;1.90;;;23.20;65.50;;;23.34;41.18;98035.28;5038847;28;20022;-40
2022/06/17 08:30:11;;;;;;;6.20;2.42;;;23.30;64.90;;;23.47;40.99;98032.47;5036369;28;20047;-40
2022/06/17 08:32:45;;;;;;;2.00;1.73;;;23.40;64.60;;;23.55;41.45;98030.03;5041896;28;20033;-40
2022/06/17 08:35:17;;;;;;;4.32;1.80;;;23.60;64.50;;;23.69;40.73;98026.22;5041098;28;20029;-41
2022/06/17 08:37:44;;;;;;;5.37;2.00;;;23.60;64.00;;;23.86;40.62;98025.75;5048396;28;20036;-40
2022/06/17 08:40:39;;;;;;;3.38;2.00;;;23.80;63.90;;;23.98;39.81;98024.75;5040803;28;20493;-40
2022/06/17 08:43:17;;;;;;;2.55;1.90;;;23.90;63.40;;;24.06;40.02;98029.50;5046239;28;20485;-40
2022/06/17 08:46:02;;;;;;;2.90;1.95;;;23.90;62.70;;;24.09;39.77;98023.84;5053212;23;20336;-48
2022/06/17 08:48:42;;;;;;;3.63;2.00;;;24.00;62.90;;;24.05;40.04;98030.50;5016415;28;20053;-50
2022/06/17 08:51:24;;;;;;;3.65;1.98;;;24.00;63.00;;;24.07;40.21;98031.22;5024059;28;20083;-49
2022/06/17 08:54:00;;;;;;;;;;;24.00;63.20;;;24.02;40.38;98023.50;5038282;28;20137;-47
2022/06/17 08:57:00;;;;;;;4.28;2.00;;;24.00;62.80;;;24.08;39.13;98022.13;5020601;28;19996;-48
2022/06/17 08:59:44;;;;;;;2.30;2.10;;;24.00;61.90;;;24.08;39.09;98015.91;5024075;28;20115;-48
2022/06/17 09:02:37;;;;;;;2.65;2.00;;;24.00;62.00;;;24.02;38.47;98014.56;5023788;28;20075;-50
2022/06/17 09:05:40;;;;;;;3.85;2.05;;;24.00;60.40;;;24.11;39.71;98021.88;5025100;28;20375;-47
2022/06/17 09:08:26;;;;;;;3.60;2.03;;;24.00;62.40;;;24.23;40.56;98019.16;5026208;28;20044;-48
2022/06/17 09:11:18;;;;;;;3.95;2.10;;;24.10;62.00;;;24.25;38.29;98025.28;5027319;28;20485;-49
2022/06/17 09:14:29;;;;;;;3.60;1.80;;;24.30;60.50;;;24.26;38.51;98027.84;5015427;28;20072;-46
2022/06/17 09:17:28;;;;;;;5.20;1.80;;;24.20;61.10;;;24.37;38.01;98024.25;5021007;28;20090;-51
2022/06/17 09:20:03;;;;;;;3.17;1.80;;;24.30;60.10;;;24.34;37.09;98021.81;5025837;28;20040;-48
2022/06/17 09:22:36;;;;;;;3.78;2.10;;;24.30;58.90;;;24.24;37.53;98018.19;5018035;28;20030;-49
2022/06/17 09:25:10;;;;;;;4.53;2.15;;;24.20;59.20;;;24.13;38.08;98021.75;5022944;28;20034;-47
2022/06/17 09:27:40;;;;;;;3.08;1.90;;;24.10;59.40;;;24.23;38.82;98022.72;5028645;28;20022;-50
2022/06/17 09:30:22;;;;;;;4.93;2.05;;;24.20;61.10;;;24.33;38.08;98030.88;5022003;28;20026;-49
2022/06/17 09:33:09;;;;;;;3.22;1.90;;;24.30;59.90;;;24.36;38.01;98025.25;5027149;28;20036;-49
2022/06/17 09:36:04;;;;;;;2.75;1.70;;;24.30;59.50;;;24.33;37.91;98025.50;5019502;28;20033;-46
2022/06/17 09:38:44;;;;;;;5.93;2.10;;;24.30;59.80;;;24.44;37.10;98032.69;5022880;28;20042;-47
2022/06/17 09:41:19;;;;;;;5.60;2.22;;;24.30;59.10;;;24.41;37.95;98033.81;5018542;28;20053;-47
2022/06/17 09:44:02;;;;;;;2.67;1.90;;;24.40;59.70;;;24.51;37.12;98026.63;5024746;28;20022;-49
2022/06/17 09:47:04;;;;;;;4.00;2.42;;;24.40;58.90;;;24.57;37.15;98034.25;5019550;28;20065;-48
2022/06/17 09:49:41;;;;;;;2.80;1.77;;;24.50;58.80;;;24.53;37.62;98026.53;5012795;28;20037;-48
2022/06/17 09:52:41;;;;;;;2.60;2.00;;;24.50;58.50;;;24.58;37.55;98027.91;5011418;28;20045;-48
2022/06/17 09:55:26;;;;;;;5.22;3.00;;;24.60;59.20;;;24.71;37.75;98026.81;5019914;28;20056;-45
2022/06/17 09:58:01;;;;;;;5.15;2.97;;;24.70;59.40;;;24.75;36.75;98026.44;5000061;28;20752;-47
2022/06/17 10:00:36;;;;;;;4.75;2.30;;;24.80;58.70;;;24.74;36.25;98029.28;5002941;28;20084;-49
2022/06/17 10:03:20;;;;;;;7.80;2.20;;;24.70;57.00;;;24.66;37.56;98019.16;5015958;28;20584;-50
2022/06/17 10:05:52;;;;;;;3.67;1.65;;;24.70;58.00;;;24.75;37.02;98018.34;5006215;28;20026;-46
2022/06/17 10:08:23;;;;;;;2.58;1.58;;;24.70;58.50;;;24.84;36.50;98008.63;5016142;28;20090;-49
2022/06/17 10:11:25;;;;;;;3.37;2.10;;;24.80;58.10;;;24.85;35.85;98004.06;5010978;28;20045;-49
2022/06/17 10:14:13;;;;;;;4.32;2.03;;;24.90;57.80;;;24.83;35.69;98008.75;5008954;28;20057;-46
2022/06/17 10:20:04;;;;;;;4.18;2.03;;;24.90;57.60;;;24.83;35.12;98008.75;5012716;28;20045;-50
2022/06/17 10:23:31;;;;;;;1.75;1.58;;;24.80;56.50;;;24.93;34.95;98012.38;5007209;28;21852;-47
2022/06/17 10:26:39;;;;;;;3.88;1.90;;;24.90;56.50;;;25.11;35.35;98005.38;5006508;28;20137;-48
2022/06/17 10:29:26;;;;;;;2.38;1.70;;;25.10;56.10;;;25.28;35.50;98003.94;5007366;28;20180;-46
2022/06/17 10:31:52;;;;;;;4.93;1.80;;;25.20;55.60;;;25.43;32.97;98011.66;5011516;28;20482;-47
2022/06/17 10:34:29;;;;;;;2.50;1.77;;;25.40;53.60;;;25.45;31.65;97998.91;5012819;28;20049;-49
2022/06/17 10:37:00;;;;;;;2.45;1.50;;;25.40;52.00;;;25.51;31.90;97999.19;5012232;28;20123;-46
2022/06/17 10:39:29;;;;;;;2.60;1.50;;;25.50;52.10;;;25.58;32.40;97995.97;5014495;28;20073;-49
2022/06/17 10:41:57;;;;;;;2.35;1.77;;;25.60;52.80;;;25.62;32.08;98000.94;5012075;28;20037;-48
2022/06/17 10:44:27;;;;;;;1.58;1.48;;;25.60;52.20;;;25.53;31.88;98001.75;5008463;28;20029;-49
2022/06/17 10:47:18;;;;;;;3.05;1.60;;;25.60;52.10;;;25.51;32.89;97998.34;5010978;28;20235;-47
2022/06/17 10:49:54;;;;;;;2.42;1.38;;;25.50;52.80;;;25.60;33.80;97997.53;5011310;28;20045;-49
2022/06/17 10:52:25;;;;;;;3.10;1.70;;;25.60;53.40;;;25.74;33.13;98003.56;5007293;28;20521;-50
2022/06/17 10:54:52;;;;;;;2.90;1.73;;;25.70;53.60;;;25.78;32.82;97999.59;5004832;28;20045;-47